Time;durP1;ratioP1;P1;durP2;ratioP2;P2;SDS_P1;SDS_P2;PMS_P1;PMS_P2;Temp;Humidity;BMP_temperature;BMP_pressure;BME280_temperature;BME280_humidity;BME280_pressure;Samples;Min_cycle;Max_cycle;Signal;HPM_P1;HPM_P2
2022/07/25 00:02:08;;;;;;;7.03;6.20;;;22.90;92.90;;;;;;5051304;28;20181;-71
2022/07/25 00:04:34;;;;;;;8.95;6.78;;;22.90;92.90;;;;;;5051190;28;20180;-71
2022/07/25 00:06:59;;;;;;;7.63;6.38;;;22.90;93.10;;;;;;5051522;28;20181;-71
2022/07/25 00:09:25;;;;;;;8.07;6.50;;;22.80;93.20;;;;;;5049653;28;20641;-70
2022/07/25 00:11:50;;;;;;;14.93;10.52;;;22.80;93.40;;;;;;5050984;28;20671;-71
2022/07/25 00:14:16;;;;;;;7.82;6.75;;;22.80;93.40;;;;;;5050491;28;20181;-71
2022/07/25 00:16:41;;;;;;;7.85;6.10;;;22.80;93.40;;;;;;5049360;28;20203;-71
2022/07/25 00:19:07;;;;;;;8.73;6.40;;;22.80;93.50;;;;;;5051107;28;20173;-71
2022/07/25 00:21:32;;;;;;;9.95;6.68;;;22.80;93.60;;;;;;5051148;28;20279;-71
2022/07/25 00:23:58;;;;;;;8.07;6.35;;;22.70;93.80;;;;;;5051162;28;20637;-70
2022/07/25 00:26:23;;;;;;;9.80;7.85;;;22.60;94.00;;;;;;5050800;28;20272;-71
2022/07/25 00:28:49;;;;;;;7.55;6.00;;;22.60;94.30;;;;;;5050951;28;20225;-71
2022/07/25 00:31:14;;;;;;;7.55;6.25;;;22.60;94.60;;;;;;5050990;28;20284;-71
2022/07/25 00:33:40;;;;;;;8.15;5.88;;;22.50;94.70;;;;;;5050938;28;20182;-71
2022/07/25 00:36:09;;;;;;;7.07;5.90;;;22.50;95.10;;;;;;5050832;28;20178;-70
2022/07/25 00:38:34;;;;;;;7.07;5.57;;;22.40;95.30;;;;;;5051244;28;20193;-70
2022/07/25 00:41:02;;;;;;;7.15;6.22;;;22.40;95.30;;;;;;5050940;28;20200;-70
2022/07/25 00:43:27;;;;;;;6.63;5.80;;;22.40;95.60;;;;;;5050898;28;20185;-71
2022/07/25 00:45:53;;;;;;;8.25;6.07;;;22.30;95.80;;;;;;5050281;28;20188;-71
2022/07/25 00:48:18;;;;;;;8.18;5.50;;;22.20;96.30;;;;;;5050970;28;20192;-70
2022/07/25 00:50:44;;;;;;;6.72;5.47;;;22.20;96.50;;;;;;5049907;28;20213;-70
2022/07/25 00:53:10;;;;;;;9.07;5.93;;;22.10;96.80;;;;;;5050748;28;20251;-70
2022/07/25 00:55:35;;;;;;;8.43;6.45;;;22.10;97.10;;;;;;5051276;28;20170;-70
2022/07/25 00:58:01;;;;;;;8.68;6.40;;;22.00;97.30;;;;;;5050353;28;20205;-70
2022/07/25 01:00:27;;;;;;;6.70;5.72;;;22.00;97.50;;;;;;5050663;28;20182;-70
2022/07/25 01:02:52;;;;;;;7.38;5.97;;;21.90;97.50;;;;;;5049970;28;20182;-70
2022/07/25 01:05:18;;;;;;;8.70;6.18;;;22.00;97.60;;;;;;5050540;28;20181;-70
2022/07/25 01:07:44;;;;;;;7.97;6.50;;;22.00;97.60;;;;;;5050520;28;20213;-69
2022/07/25 01:10:10;;;;;;;7.65;6.15;;;21.90;97.70;;;;;;5050777;28;20245;-69
2022/07/25 01:12:52;;;;;;;10.88;7.00;;;21.90;97.90;;;;;;5053957;28;20217;-70
2022/07/25 01:15:19;;;;;;;7.97;6.35;;;21.90;97.90;;;;;;5054298;28;20267;-69
2022/07/25 01:17:44;;;;;;;8.32;6.70;;;21.90;97.80;;;;;;5053421;28;20185;-69
2022/07/25 01:20:16;;;;;;;8.60;6.20;;;21.90;97.70;;;;;;5053761;28;20217;-69
2022/07/25 01:22:42;;;;;;;7.75;6.63;;;22.00;97.60;;;;;;5053630;28;20461;-69
2022/07/25 01:25:08;;;;;;;9.27;7.65;;;22.00;97.60;;;;;;5053533;28;20653;-69
2022/07/25 01:27:34;;;;;;;11.32;8.18;;;22.00;97.60;;;;;;5054171;28;20185;-70
2022/07/25 01:29:59;;;;;;;10.25;6.97;;;22.00;97.60;;;;;;5053638;28;20196;-69
2022/07/25 01:32:25;;;;;;;6.82;5.70;;;22.00;97.70;;;;;;5052455;28;20217;-69
2022/07/25 01:34:50;;;;;;;6.70;5.78;;;22.00;97.70;;;;;;5054008;28;20186;-69
2022/07/25 01:37:16;;;;;;;8.73;6.03;;;21.90;97.70;;;;;;5053659;28;20178;-69
2022/07/25 01:39:41;;;;;;;7.18;6.45;;;22.00;97.80;;;;;;5054075;28;20681;-69
2022/07/25 01:42:07;;;;;;;10.05;6.38;;;22.00;97.80;;;;;;5053252;28;20220;-70
2022/07/25 01:44:32;;;;;;;8.70;6.80;;;22.00;97.80;;;;;;5053816;28;20178;-69
2022/07/25 01:46:58;;;;;;;7.45;6.32;;;22.00;97.70;;;;;;5053608;28;20674;-69
2022/07/25 01:49:25;;;;;;;7.05;6.03;;;22.00;97.80;;;;;;5052504;28;20204;-69
2022/07/25 01:51:51;;;;;;;8.25;6.00;;;22.00;97.80;;;;;;5053155;28;20217;-70
2022/07/25 01:54:17;;;;;;;7.05;5.75;;;22.00;97.80;;;;;;5053521;28;20200;-69
2022/07/25 01:56:43;;;;;;;7.25;6.18;;;22.00;97.90;;;;;;5053347;28;20190;-70
2022/07/25 01:59:09;;;;;;;7.20;6.18;;;22.00;98.00;;;;;;5053014;28;20189;-70
2022/07/25 02:01:36;;;;;;;9.32;7.15;;;22.00;98.10;;;;;;5053554;28;20594;-69
2022/07/25 02:04:01;;;;;;;8.70;6.50;;;22.00;98.10;;;;;;5053199;28;20193;-69
2022/07/25 02:06:27;;;;;;;8.32;6.93;;;22.00;98.10;;;;;;5053302;28;20180;-69
2022/07/25 02:08:52;;;;;;;8.68;6.90;;;22.10;98.10;;;;;;5053279;28;20181;-69
2022/07/25 02:11:18;;;;;;;6.72;6.00;;;22.10;98.40;;;;;;5052816;28;20202;-69
2022/07/25 02:13:43;;;;;;;8.82;6.40;;;22.10;98.40;;;;;;5053107;28;20185;-69
2022/07/25 02:16:09;;;;;;;12.02;5.97;;;22.10;98.40;;;;;;5052486;28;20173;-70
2022/07/25 02:18:35;;;;;;;8.35;6.45;;;22.10;98.40;;;;;;5051975;28;20243;-69
2022/07/25 02:21:01;;;;;;;9.95;6.65;;;22.10;98.30;;;;;;5052357;28;20173;-69
2022/07/25 02:23:26;;;;;;;8.00;6.40;;;22.10;98.30;;;;;;5052877;28;20181;-69
2022/07/25 02:25:52;;;;;;;8.18;6.15;;;22.10;98.40;;;;;;5052567;28;20193;-69
2022/07/25 02:28:17;;;;;;;10.95;7.00;;;22.10;98.40;;;;;;5052594;28;20201;-69
2022/07/25 02:30:43;;;;;;;9.60;7.57;;;22.10;98.40;;;;;;5052465;28;20180;-69
2022/07/25 02:33:08;;;;;;;7.45;6.10;;;22.10;98.40;;;;;;5052498;28;20199;-69
2022/07/25 02:35:34;;;;;;;8.70;6.30;;;22.10;98.50;;;;;;5052660;28;20576;-69
2022/07/25 02:38:00;;;;;;;8.88;6.88;;;22.10;98.60;;;;;;5051583;28;20735;-69
2022/07/25 02:40:25;;;;;;;7.70;6.28;;;22.10;98.60;;;;;;5052330;28;20605;-69
2022/07/25 02:42:51;;;;;;;12.27;7.00;;;22.10;98.50;;;;;;5052342;28;20184;-69
2022/07/25 02:45:16;;;;;;;9.43;7.18;;;22.10;98.70;;;;;;5052081;28;20193;-69
2022/07/25 02:47:42;;;;;;;6.95;5.85;;;22.00;98.80;;;;;;5052819;28;20182;-69
2022/07/25 02:50:08;;;;;;;10.27;6.88;;;22.00;98.90;;;;;;5052092;28;20645;-69
2022/07/25 02:52:33;;;;;;;8.20;7.05;;;22.00;98.90;;;;;;5051301;28;20217;-70
2022/07/25 02:54:59;;;;;;;9.80;6.97;;;22.00;99.00;;;;;;5034384;28;20556;-70
2022/07/25 02:57:25;;;;;;;9.27;6.97;;;22.00;99.20;;;;;;5052481;28;20264;-70
2022/07/25 02:59:50;;;;;;;13.40;9.40;;;22.00;99.20;;;;;;5052358;28;20192;-70
2022/07/25 03:02:16;;;;;;;11.10;8.40;;;22.00;99.20;;;;;;5052310;28;20243;-69
2022/07/25 03:04:41;;;;;;;8.82;7.40;;;21.90;99.30;;;;;;5052418;28;20186;-69
2022/07/25 03:07:07;;;;;;;10.38;8.63;;;21.90;99.40;;;;;;5052025;28;20181;-69
2022/07/25 03:09:32;;;;;;;9.18;7.55;;;21.90;99.40;;;;;;5052312;28;20177;-69
2022/07/25 03:11:58;;;;;;;10.32;7.43;;;21.90;99.40;;;;;;5051915;28;20224;-70
2022/07/25 03:14:23;;;;;;;10.68;8.00;;;21.90;99.50;;;;;;5050428;28;20602;-70
2022/07/25 03:16:49;;;;;;;10.73;7.85;;;21.90;99.40;;;;;;5052066;28;20676;-69
2022/07/25 03:19:14;;;;;;;11.55;7.32;;;21.90;99.40;;;;;;5051625;28;20177;-70
2022/07/25 03:21:40;;;;;;;8.35;6.43;;;22.00;99.50;;;;;;5051560;28;20712;-69
2022/07/25 03:24:06;;;;;;;9.40;7.00;;;22.00;99.50;;;;;;5050377;28;20177;-70
2022/07/25 03:26:31;;;;;;;9.32;6.53;;;22.00;99.60;;;;;;5051694;28;20181;-69
2022/07/25 03:28:57;;;;;;;7.68;6.60;;;21.90;99.60;;;;;;5051347;28;20264;-69
2022/07/25 03:31:22;;;;;;;8.07;6.70;;;21.90;99.70;;;;;;5051534;28;20224;-70
2022/07/25 03:33:48;;;;;;;10.27;7.60;;;21.90;99.80;;;;;;5051392;28;20185;-69
2022/07/25 03:36:13;;;;;;;10.35;6.82;;;21.80;99.90;;;;;;5051381;28;20230;-69
2022/07/25 03:38:39;;;;;;;9.27;6.55;;;21.80;99.90;;;;;;5052153;28;20193;-69
2022/07/25 03:41:05;;;;;;;9.48;6.75;;;21.80;99.90;;;;;;5051419;28;20571;-69
2022/07/25 03:43:30;;;;;;;9.13;7.00;;;21.70;99.90;;;;;;5051663;28;20648;-69
2022/07/25 03:45:56;;;;;;;11.88;7.68;;;21.70;99.90;;;;;;5051547;28;20181;-69
2022/07/25 03:48:21;;;;;;;8.52;6.90;;;21.70;99.90;;;;;;5051792;28;20274;-70
2022/07/25 03:50:47;;;;;;;8.98;7.63;;;21.60;99.90;;;;;;5051495;28;20173;-70
2022/07/25 03:53:13;;;;;;;9.02;7.10;;;21.60;99.90;;;;;;5049682;28;20705;-70
2022/07/25 03:55:38;;;;;;;10.07;7.40;;;21.50;99.90;;;;;;5051779;28;20177;-69
2022/07/25 03:58:04;;;;;;;8.95;7.70;;;21.50;99.90;;;;;;5051199;28;20181;-70
2022/07/25 04:00:30;;;;;;;8.60;7.00;;;21.50;99.90;;;;;;5050086;28;20177;-70
2022/07/25 04:02:56;;;;;;;9.05;7.20;;;21.50;99.90;;;;;;5050185;28;20177;-70
2022/07/25 04:05:21;;;;;;;9.05;7.57;;;21.50;99.90;;;;;;5050720;28;20678;-70
2022/07/25 04:07:47;;;;;;;8.18;6.93;;;21.50;99.90;;;;;;5050839;28;20181;-69
2022/07/25 04:10:12;;;;;;;8.82;7.20;;;21.50;99.90;;;;;;5050994;28;20177;-70
2022/07/25 04:12:38;;;;;;;7.95;6.22;;;21.50;99.90;;;;;;5051387;28;20209;-71
2022/07/25 04:15:04;;;;;;;7.95;6.57;;;21.50;99.90;;;;;;5051516;28;20185;-72
2022/07/25 04:17:29;;;;;;;8.98;7.65;;;21.50;99.90;;;;;;5051659;28;20177;-68
2022/07/25 04:19:55;;;;;;;10.52;7.32;;;21.50;99.90;;;;;;5051359;28;20665;-69
2022/07/25 04:22:21;;;;;;;8.73;7.50;;;21.40;99.90;;;;;;5050895;28;20243;-72
2022/07/25 04:24:46;;;;;;;8.45;7.28;;;21.50;99.90;;;;;;5050946;28;20173;-75
2022/07/25 04:27:12;;;;;;;8.43;7.35;;;21.50;99.90;;;;;;5050578;28;20666;-71
2022/07/25 04:29:38;;;;;;;7.97;6.88;;;21.50;99.90;;;;;;5051321;28;20194;-73
2022/07/25 04:32:04;;;;;;;10.45;6.93;;;21.50;99.90;;;;;;5050960;28;20671;-77
2022/07/25 04:34:29;;;;;;;11.95;8.45;;;21.50;99.90;;;;;;5050864;28;20217;-71
2022/07/25 04:36:55;;;;;;;12.32;7.97;;;21.50;99.90;;;;;;5050693;28;20683;-72
2022/07/25 04:39:20;;;;;;;9.07;7.30;;;21.50;99.90;;;;;;5051187;28;20182;-73
2022/07/25 04:41:46;;;;;;;9.38;6.95;;;21.50;99.90;;;;;;5050703;28;20530;-75
2022/07/25 04:44:11;;;;;;;9.80;7.43;;;21.60;99.90;;;;;;5051370;28;20556;-75
2022/07/25 04:46:37;;;;;;;10.30;7.28;;;21.80;99.90;;;;;;5053799;28;20174;-71
2022/07/25 04:49:02;;;;;;;9.55;6.97;;;22.10;99.90;;;;;;5054686;28;20177;-70
2022/07/25 04:51:28;;;;;;;10.15;7.45;;;22.40;99.90;;;;;;5054427;28;20225;-71
2022/07/25 04:53:53;;;;;;;8.23;7.10;;;22.70;99.90;;;;;;5054927;28;20260;-74
2022/07/25 04:56:19;;;;;;;7.85;6.97;;;23.00;99.90;;;;;;5054722;28;20215;-73
2022/07/25 04:58:44;;;;;;;10.05;7.35;;;23.30;99.60;;;;;;5055117;28;20182;-69
2022/07/25 05:01:10;;;;;;;8.45;6.93;;;23.60;98.90;;;;;;5054723;28;20547;-69
2022/07/25 05:03:35;;;;;;;11.68;7.10;;;23.90;98.20;;;;;;5054495;28;20185;-70
2022/07/25 05:06:01;;;;;;;10.45;6.45;;;24.30;97.80;;;;;;5055122;28;20197;-69
2022/07/25 05:08:27;;;;;;;8.90;6.95;;;24.60;97.20;;;;;;5054551;28;20260;-69
2022/07/25 05:10:53;;;;;;;10.55;7.15;;;25.00;96.60;;;;;;5054960;28;20181;-69
2022/07/25 05:13:18;;;;;;;8.60;6.68;;;25.40;95.70;;;;;;5054592;28;20668;-69
2022/07/25 05:15:43;;;;;;;9.27;6.85;;;25.80;94.80;;;;;;5054970;28;20177;-69
2022/07/25 05:18:10;;;;;;;8.90;7.13;;;26.10;93.90;;;;;;5054489;28;20182;-69
2022/07/25 05:20:35;;;;;;;9.43;6.70;;;26.50;93.30;;;;;;5054860;28;20182;-69
2022/07/25 05:23:01;;;;;;;9.57;6.50;;;26.80;92.40;;;;;;5054540;28;20221;-69
2022/07/25 05:25:27;;;;;;;7.20;6.50;;;26.90;91.90;;;;;;5054712;28;20184;-70
2022/07/25 05:27:54;;;;;;;7.93;6.82;;;27.20;91.60;;;;;;5053828;28;20205;-69
2022/07/25 05:30:20;;;;;;;11.35;7.10;;;27.60;90.90;;;;;;5054426;28;20675;-69
2022/07/25 05:32:45;;;;;;;8.68;6.35;;;27.90;90.00;;;;;;5054522;28;20217;-69
2022/07/25 05:35:11;;;;;;;8.95;6.80;;;28.30;88.40;;;;;;5054492;28;20180;-69
2022/07/25 05:37:37;;;;;;;7.78;6.70;;;28.70;86.90;;;;;;5053814;28;20283;-69
2022/07/25 05:40:04;;;;;;;7.55;6.10;;;29.10;85.30;;;;;;5054306;28;20751;-69
2022/07/25 05:42:30;;;;;;;7.22;6.53;;;29.40;83.60;;;;;;5054459;28;20532;-69
2022/07/25 05:44:56;;;;;;;6.80;6.05;;;29.70;81.90;;;;;;5054312;28;20177;-69
2022/07/25 05:47:21;;;;;;;6.90;6.20;;;30.00;80.80;;;;;;5054365;28;20177;-69
2022/07/25 05:49:47;;;;;;;9.30;6.15;;;30.20;79.40;;;;;;5054699;28;20169;-70
2022/07/25 05:52:12;;;;;;;7.95;5.82;;;30.50;78.10;;;;;;5054121;28;20367;-70
2022/07/25 05:54:38;;;;;;;9.00;7.18;;;30.80;76.80;;;;;;5054280;28;20655;-70
2022/07/25 05:57:03;;;;;;;7.28;6.53;;;31.00;75.70;;;;;;5053851;28;20208;-69
2022/07/25 05:59:29;;;;;;;7.65;6.30;;;31.20;74.50;;;;;;5054617;28;20626;-70
2022/07/25 06:01:54;;;;;;;9.07;6.20;;;31.60;73.00;;;;;;5054233;28;20178;-70
2022/07/25 06:04:20;;;;;;;7.97;6.28;;;31.90;71.90;;;;;;5054024;28;20628;-70
2022/07/25 06:06:52;;;;;;;6.65;6.05;;;32.30;70.70;;;;;;5054155;28;20538;-70
2022/07/25 06:09:20;;;;;;;6.65;5.80;;;32.70;69.00;;;;;;5053772;28;20176;-70
2022/07/25 06:11:46;;;;;;;6.88;5.78;;;33.10;67.30;;;;;;5053925;28;20562;-70
2022/07/25 06:14:11;;;;;;;8.02;6.05;;;33.60;65.00;;;;;;5054451;28;20227;-70
2022/07/25 06:16:37;;;;;;;7.00;6.30;;;34.20;62.90;;;;;;5052995;28;20189;-71
2022/07/25 06:19:02;;;;;;;7.90;6.18;;;34.80;60.60;;;;;;5062029;28;20292;-74
2022/07/25 06:21:28;;;;;;;6.97;6.30;;;35.20;58.80;;;;;;5053324;28;20262;-76
2022/07/25 06:23:53;;;;;;;6.55;5.95;;;35.80;57.40;;;;;;5053941;28;20625;-75
2022/07/25 06:26:20;;;;;;;6.63;6.03;;;36.30;55.90;;;;;;5052635;28;20654;-75
2022/07/25 06:28:45;;;;;;;6.40;5.80;;;36.70;54.60;;;;;;5053507;28;20180;-75
2022/07/25 06:31:11;;;;;;;7.95;6.55;;;37.00;53.70;;;;;;5053583;28;20212;-75
2022/07/25 06:33:37;;;;;;;7.15;5.93;;;37.30;53.00;;;;;;5053444;28;20184;-73
2022/07/25 06:36:04;;;;;;;8.15;6.18;;;37.80;52.10;;;;;;5053416;28;20180;-73
2022/07/25 06:38:30;;;;;;;6.93;6.15;;;38.30;51.40;;;;;;5052967;28;20277;-73
2022/07/25 06:40:55;;;;;;;6.90;6.18;;;38.60;50.20;;;;;;5053719;28;20247;-73
2022/07/25 06:43:21;;;;;;;7.95;6.03;;;38.50;49.30;;;;;;5052789;28;20235;-74
2022/07/25 06:45:46;;;;;;;6.80;6.03;;;38.70;48.60;;;;;;5053403;28;20218;-74
2022/07/25 06:48:13;;;;;;;6.75;5.57;;;39.00;48.30;;;;;;5052898;28;20184;-73
2022/07/25 06:50:39;;;;;;;6.15;5.60;;;39.40;47.70;;;;;;5053023;28;20181;-76
2022/07/25 06:53:04;;;;;;;6.65;5.95;;;39.90;47.10;;;;;;5052555;28;20556;-74
2022/07/25 06:55:30;;;;;;;8.20;5.32;;;40.20;46.80;;;;;;5053311;28;20264;-75
2022/07/25 06:57:56;;;;;;;6.88;5.68;;;40.60;45.90;;;;;;5054088;28;20632;-75
2022/07/25 07:00:21;;;;;;;6.10;5.60;;;40.90;45.20;;;;;;5053028;28;20743;-76
2022/07/25 07:02:54;;;;;;;7.30;5.40;;;41.10;44.50;;;;;;5052737;28;20522;-74
2022/07/25 07:05:21;;;;;;;6.38;5.78;;;41.40;44.20;;;;;;5053142;28;20208;-75
2022/07/25 07:07:47;;;;;;;7.20;5.93;;;41.60;43.30;;;;;;5052259;28;20173;-75
2022/07/25 07:10:12;;;;;;;6.50;5.78;;;41.80;43.10;;;;;;5053309;28;20282;-73
2022/07/25 07:12:38;;;;;;;6.53;5.80;;;42.00;42.60;;;;;;5052821;28;20220;-74
2022/07/25 07:15:04;;;;;;;6.15;5.60;;;42.20;42.50;;;;;;5053033;28;20659;-74
2022/07/25 07:17:30;;;;;;;7.82;5.63;;;42.30;41.60;;;;;;5052970;28;20177;-74
2022/07/25 07:19:56;;;;;;;7.68;6.00;;;42.50;41.20;;;;;;5054968;28;20252;-74
2022/07/25 07:22:21;;;;;;;7.63;6.65;;;42.60;40.90;;;;;;5052909;28;20229;-74
2022/07/25 07:24:47;;;;;;;6.85;5.55;;;42.70;41.00;;;;;;5051988;28;20183;-73
2022/07/25 07:27:12;;;;;;;8.13;6.00;;;42.60;40.90;;;;;;5055427;28;20191;-74
2022/07/25 07:29:38;;;;;;;7.80;5.65;;;42.70;40.90;;;;;;5052603;28;20579;-75
2022/07/25 07:32:05;;;;;;;8.20;5.47;;;42.80;40.00;;;;;;5053430;28;20235;-74
2022/07/25 07:34:30;;;;;;;7.57;5.88;;;42.90;40.10;;;;;;5052577;28;20184;-72
2022/07/25 07:36:56;;;;;;;8.90;6.05;;;43.10;40.30;;;;;;5053143;28;20181;-72
2022/07/25 07:39:21;;;;;;;8.48;6.00;;;43.20;39.20;;;;;;5052434;28;20501;-73
2022/07/25 07:41:47;;;;;;;6.75;6.15;;;42.60;39.80;;;;;;5052504;28;20205;-73
2022/07/25 07:44:13;;;;;;;8.57;6.05;;;41.30;40.90;;;;;;5052274;28;20191;-72
2022/07/25 07:46:38;;;;;;;7.05;6.35;;;41.10;41.80;;;;;;5052620;28;20631;-73
2022/07/25 07:49:04;;;;;;;7.05;6.18;;;41.40;41.30;;;;;;5052219;28;20230;-72
2022/07/25 07:51:29;;;;;;;7.07;6.05;;;41.70;40.30;;;;;;5052140;28;20242;-73
2022/07/25 07:56:40;;;;;;;6.78;6.03;;;42.60;40.30;;;;;;5052417;28;20184;-72
2022/07/25 07:59:06;;;;;;;6.55;5.75;;;43.00;40.10;;;;;;5052086;28;20231;-72
2022/07/25 08:01:32;;;;;;;6.97;5.78;;;43.00;39.60;;;;;;5052043;28;20176;-73
2022/07/25 08:03:58;;;;;;;6.43;5.80;;;42.90;39.70;;;;;;5052172;28;20202;-73
2022/07/25 08:06:24;;;;;;;6.93;5.82;;;42.30;40.10;;;;;;5051928;28;20725;-73
2022/07/25 08:08:49;;;;;;;7.30;6.60;;;42.00;40.40;;;;;;5051869;28;20184;-73
2022/07/25 08:11:15;;;;;;;9.45;6.65;;;42.00;40.90;;;;;;5052317;28;20200;-73
2022/07/25 08:13:40;;;;;;;6.65;5.93;;;42.10;40.90;;;;;;5052296;28;20574;-73
2022/07/25 08:16:06;;;;;;;5.85;5.35;;;42.40;41.30;;;;;;5052269;28;20682;-74
2022/07/25 08:18:32;;;;;;;6.22;5.68;;;42.20;40.60;;;;;;5051759;28;20255;-73
2022/07/25 08:21:01;;;;;;;6.10;5.60;;;42.30;41.40;;;;;;5051914;28;20168;-75
2022/07/25 08:23:27;;;;;;;5.88;5.32;;;42.40;40.40;;;;;;5051978;28;20187;-75
2022/07/25 08:25:52;;;;;;;6.90;6.25;;;42.50;39.90;;;;;;5052145;28;20177;-76
2022/07/25 08:28:19;;;;;;;6.57;5.68;;;42.20;39.30;;;;;;5051667;28;20188;-76
2022/07/25 08:30:45;;;;;;;7.93;6.10;;;41.50;39.50;;;;;;5051839;28;20259;-76
2022/07/25 08:33:12;;;;;;;8.05;6.13;;;40.60;41.00;;;;;;5051534;28;20216;-77
2022/07/25 08:35:39;;;;;;;6.70;6.05;;;40.40;41.10;;;;;;5052027;28;20161;-75
2022/07/25 08:38:06;;;;;;;7.03;5.93;;;40.30;41.80;;;;;;5051654;28;20173;-75
2022/07/25 08:40:33;;;;;;;6.65;5.97;;;40.30;41.40;;;;;;5051690;28;20636;-76
2022/07/25 08:42:59;;;;;;;6.38;5.80;;;40.20;41.80;;;;;;5052366;28;20212;-75
2022/07/25 08:45:26;;;;;;;6.00;5.50;;;40.30;41.50;;;;;;5052143;28;20202;-76
2022/07/25 08:47:56;;;;;;;6.32;5.70;;;40.00;42.10;;;;;;5051544;28;20248;-75
2022/07/25 08:50:25;;;;;;;6.70;6.00;;;39.70;42.60;;;;;;5051900;28;20713;-76
2022/07/25 08:52:51;;;;;;;6.50;5.80;;;39.00;43.00;;;;;;5047167;28;20595;-76
2022/07/25 08:55:19;;;;;;;7.70;6.18;;;38.80;44.20;;;;;;5032045;28;20170;-76
2022/07/25 08:57:50;;;;;;;6.53;5.93;;;38.90;44.50;;;;;;5031659;28;20181;-75
2022/07/25 09:00:20;;;;;;;6.70;6.00;;;39.10;43.90;;;;;;5046955;28;20180;-75
2022/07/25 09:03:00;;;;;;;6.57;5.85;;;39.00;43.60;;;;;;5051716;28;20230;-74
2022/07/25 09:05:27;;;;;;;6.85;6.13;;;38.40;43.80;;;;;;5051547;28;20262;-75
2022/07/25 09:07:55;;;;;;;6.32;5.75;;;38.30;44.40;;;;;;5051488;28;20173;-77
2022/07/25 09:10:23;;;;;;;6.88;6.18;;;38.40;44.30;;;;;;5051317;28;20193;-75
2022/07/25 09:13:00;;;;;;;6.38;5.78;;;38.10;44.60;;;;;;5051220;28;20208;-76
2022/07/25 09:15:28;;;;;;;6.22;5.47;;;37.70;43.90;;;;;;5051318;28;20180;-76
2022/07/25 09:17:56;;;;;;;6.75;6.00;;;37.60;45.00;;;;;;5051599;28;20183;-76
2022/07/25 09:20:22;;;;;;;5.93;5.32;;;37.60;44.80;;;;;;5051158;28;20195;-76
2022/07/25 09:22:48;;;;;;;6.15;5.55;;;37.80;44.40;;;;;;5051121;28;20248;-74
2022/07/25 09:25:22;;;;;;;6.28;5.32;;;37.50;44.30;;;;;;5050070;28;20636;-76
2022/07/25 09:27:47;;;;;;;6.05;5.45;;;37.40;45.40;;;;;;5051344;28;20216;-76
2022/07/25 09:30:14;;;;;;;6.93;5.43;;;37.40;45.60;;;;;;5051441;28;20204;-76
2022/07/25 09:32:39;;;;;;;6.80;5.78;;;37.40;45.70;;;;;;5053681;28;20623;-76
2022/07/25 09:35:05;;;;;;;7.60;5.80;;;37.80;44.40;;;;;;5053523;28;20256;-75
2022/07/25 09:37:31;;;;;;;7.63;5.78;;;38.10;44.30;;;;;;5054645;28;20250;-74
2022/07/25 09:39:56;;;;;;;5.97;5.35;;;37.80;43.50;;;;;;5054918;28;20632;-75
2022/07/25 09:42:24;;;;;;;6.82;6.13;;;37.80;44.50;;;;;;5054490;28;20188;-75
2022/07/25 09:45:06;;;;;;;6.57;5.85;;;37.70;44.00;;;;;;5054720;28;20184;-76
2022/07/25 09:47:35;;;;;;;7.00;5.88;;;37.70;44.00;;;;;;5054486;28;20173;-74
2022/07/25 09:50:01;;;;;;;6.78;5.60;;;37.90;44.50;;;;;;5054336;28;20568;-74
2022/07/25 09:52:26;;;;;;;6.43;5.82;;;38.10;43.90;;;;;;5054383;28;20216;-75
2022/07/25 09:54:53;;;;;;;9.45;6.30;;;38.10;43.80;;;;;;5054288;28;20168;-75
2022/07/25 09:57:19;;;;;;;6.50;5.90;;;38.00;44.60;;;;;;5054299;28;20234;-75
2022/07/25 09:59:45;;;;;;;6.78;6.07;;;37.90;44.80;;;;;;5054260;28;20829;-75
2022/07/25 10:02:21;;;;;;;6.57;5.97;;;38.10;44.70;;;;;;5054354;28;20176;-75
2022/07/25 10:05:07;;;;;;;6.40;5.80;;;38.40;44.00;;;;;;5054400;28;20200;-75
2022/07/25 10:07:36;;;;;;;6.18;5.30;;;38.50;44.00;;;;;;5054233;28;20173;-75
2022/07/25 10:10:03;;;;;;;6.30;5.70;;;38.30;43.80;;;;;;5053168;28;20208;-75
2022/07/25 10:12:28;;;;;;;6.15;5.55;;;38.30;43.90;;;;;;5054025;28;20212;-75
2022/07/25 10:15:12;;;;;;;7.40;5.60;;;38.10;45.60;;;;;;5053862;28;20508;-77
2022/07/25 10:17:40;;;;;;;6.30;5.70;;;38.10;44.60;;;;;;5054026;28;20264;-76
2022/07/25 10:20:09;;;;;;;8.20;5.72;;;38.30;44.40;;;;;;5054041;28;20175;-76
2022/07/25 10:22:43;;;;;;;6.03;5.50;;;38.40;44.00;;;;;;5053696;28;20269;-75
2022/07/25 10:25:18;;;;;;;7.55;5.45;;;38.70;44.20;;;;;;5053815;28;20218;-76
2022/07/25 10:27:47;;;;;;;5.82;5.32;;;39.00;42.50;;;;;;5054241;28;20203;-75
2022/07/25 10:30:22;;;;;;;6.10;5.50;;;39.20;42.00;;;;;;5053965;28;20176;-75
2022/07/25 10:32:59;;;;;;;6.53;5.85;;;39.30;41.50;;;;;;5053678;28;20206;-74
2022/07/25 10:35:27;;;;;;;6.80;5.22;;;39.50;41.50;;;;;;5053532;28;20903;-75
2022/07/25 10:37:54;;;;;;;6.22;5.30;;;39.30;41.40;;;;;;5053133;28;20177;-74
2022/07/25 10:40:30;;;;;;;5.75;4.93;;;39.20;41.60;;;;;;5052228;28;20199;-75
2022/07/25 10:43:17;;;;;;;6.05;5.45;;;39.60;41.10;;;;;;5053621;28;20180;-75
2022/07/25 10:45:53;;;;;;;5.80;5.03;;;39.80;40.80;;;;;;5052522;28;20177;-75
2022/07/25 10:48:28;;;;;;;6.32;4.80;;;39.80;40.10;;;;;;5053483;28;20675;-75
2022/07/25 10:51:03;;;;;;;5.45;4.95;;;39.80;40.50;;;;;;5053183;28;20184;-76
2022/07/25 10:53:34;;;;;;;5.80;5.22;;;39.80;40.00;;;;;;5053488;28;20276;-76
2022/07/25 10:56:12;;;;;;;6.57;4.72;;;39.40;40.00;;;;;;5053445;28;20191;-76
2022/07/25 10:58:45;;;;;;;5.85;5.25;;;38.70;41.00;;;;;;5035027;28;20185;-77
2022/07/25 11:01:13;;;;;;;5.60;5.00;;;38.00;41.00;;;;;;5052591;28;20541;-76
2022/07/25 11:03:43;;;;;;;5.97;5.38;;;37.70;42.40;;;;;;5052767;28;20238;-77
2022/07/25 11:06:13;;;;;;;5.55;4.97;;;37.80;42.50;;;;;;5051815;28;20191;-75
2022/07/25 11:08:40;;;;;;;6.55;5.40;;;37.90;42.20;;;;;;5053110;28;20165;-75
2022/07/25 11:11:06;;;;;;;6.35;4.72;;;37.60;42.20;;;;;;5052523;28;20208;-74
2022/07/25 11:13:37;;;;;;;6.60;5.20;;;37.40;42.10;;;;;;5052709;28;20238;-75
2022/07/25 11:16:03;;;;;;;5.78;5.18;;;37.20;43.20;;;;;;5034822;28;20211;-74
2022/07/25 11:18:40;;;;;;;5.50;5.00;;;37.40;43.90;;;;;;5052915;28;20221;-76
2022/07/25 11:21:07;;;;;;;6.10;5.20;;;37.50;42.70;;;;;;5052235;28;20168;-74
2022/07/25 11:23:34;;;;;;;6.72;5.40;;;37.60;43.30;;;;;;5052755;28;20185;-74
2022/07/25 11:26:10;;;;;;;6.20;4.78;;;37.70;42.90;;;;;;5052187;28;20177;-75
2022/07/25 11:28:40;;;;;;;6.30;5.55;;;37.60;42.40;;;;;;5052765;28;20188;-75
2022/07/25 11:31:06;;;;;;;5.18;4.63;;;37.60;42.30;;;;;;5052218;28;20181;-74
2022/07/25 11:33:32;;;;;;;6.38;5.00;;;37.70;42.60;;;;;;5051972;28;20565;-74
2022/07/25 11:35:58;;;;;;;5.47;4.97;;;37.80;41.70;;;;;;5052107;28;20185;-76
2022/07/25 11:38:25;;;;;;;6.47;5.10;;;37.90;41.70;;;;;;5051813;28;20704;-74
2022/07/25 11:40:51;;;;;;;6.22;4.50;;;37.60;41.80;;;;;;5050332;28;20172;-74
2022/07/25 11:43:21;;;;;;;5.82;4.97;;;37.50;41.00;;;;;;5050732;28;20183;-76
2022/07/25 11:45:59;;;;;;;4.93;4.43;;;37.50;41.80;;;;;;5052017;28;20672;-74
2022/07/25 11:48:37;;;;;;;6.10;4.40;;;37.40;41.30;;;;;;5051814;28;20208;-76
2022/07/25 11:51:15;;;;;;;5.30;4.65;;;37.40;42.10;;;;;;5052040;28;20169;-73
2022/07/25 11:53:48;;;;;;;4.40;4.00;;;37.60;42.90;;;;;;5051761;28;20200;-73
2022/07/25 11:56:19;;;;;;;5.80;4.65;;;37.90;41.00;;;;;;5051747;28;20180;-72
2022/07/25 11:58:59;;;;;;;4.53;4.13;;;37.90;41.10;;;;;;5052142;28;20590;-75
2022/07/25 12:01:33;;;;;;;7.70;4.40;;;37.80;42.10;;;;;;5051817;28;20215;-73
2022/07/25 12:04:13;;;;;;;4.68;4.28;;;37.80;42.10;;;;;;5032294;28;20192;-74
2022/07/25 12:06:40;;;;;;;4.97;4.47;;;37.70;41.30;;;;;;5042296;28;20188;-74
2022/07/25 12:09:14;;;;;;;4.50;4.10;;;37.30;41.10;;;;;;5051759;28;20233;-74
2022/07/25 12:11:40;;;;;;;4.53;4.10;;;37.20;42.00;;;;;;5052031;28;20212;-75
2022/07/25 12:14:06;;;;;;;4.50;4.10;;;36.90;42.00;;;;;;5051714;28;20209;-73
2022/07/25 12:16:32;;;;;;;4.80;4.30;;;36.60;42.80;;;;;;5051814;28;20201;-76
2022/07/25 12:18:58;;;;;;;4.90;4.07;;;36.30;42.10;;;;;;5051752;28;20536;-76
2022/07/25 12:21:25;;;;;;;6.25;4.30;;;35.90;42.30;;;;;;5051766;28;20573;-71
2022/07/25 12:23:51;;;;;;;5.88;4.32;;;35.70;43.60;;;;;;5052880;28;20314;-74
2022/07/25 12:26:17;;;;;;;4.30;3.83;;;35.60;44.60;;;;;;5051660;28;20263;-74
2022/07/25 12:28:42;;;;;;;4.53;4.13;;;35.80;44.20;;;;;;5051484;28;20184;-72
2022/07/25 12:31:08;;;;;;;4.60;4.20;;;36.20;44.40;;;;;;5051175;28;20184;-71
2022/07/25 12:33:34;;;;;;;6.63;4.65;;;36.40;43.60;;;;;;5051004;28;20192;-72
2022/07/25 12:36:01;;;;;;;6.95;4.45;;;36.70;43.10;;;;;;5051653;28;20758;-69
2022/07/25 12:38:27;;;;;;;4.80;4.30;;;37.00;42.80;;;;;;5051605;28;20181;-69
2022/07/25 12:40:53;;;;;;;4.95;4.45;;;37.30;42.70;;;;;;5051345;28;20169;-70
2022/07/25 12:43:19;;;;;;;5.78;4.43;;;37.40;42.80;;;;;;5051364;28;20179;-70
2022/07/25 12:45:44;;;;;;;8.63;4.88;;;37.10;42.60;;;;;;5050915;28;20177;-71
2022/07/25 12:48:13;;;;;;;5.10;4.57;;;36.90;43.00;;;;;;5049969;28;20215;-71